Time,TemperatureF,DewpointF,PressureIn,WindDirection,WindDirectionDegrees,WindSpeedMPH,WindSpeedGustMPH,Humidity,HourlyPrecipIn,Conditions,Clouds,dailyrainin,SolarRadiationWatts/m^2,SoftwareType,DateUTC
2013-01-03 00:03:00,37.0,32.0,-100.00,NNE,12,3.0,4.0,83,0.00,,,0.04,0.000000,,2013-01-03 05:03:00,
2013-01-03 00:33:00,37.0,32.0,-100.00,NNW,329,2.0,5.0,82,0.00,,,0.03,0.000000,,2013-01-03 05:33:00,
2013-01-03 00:42:00,37.0,32.0,-100.00,NNW,329,2.0,5.0,82,0.00,,,0.03,0.000000,,2013-01-03 05:42:00,
2013-01-03 00:53:00,37.0,32.0,-100.00,NNW,329,2.0,5.0,82,0.00,,,0.03,0.000000,,2013-01-03 05:53:00,
2013-01-03 01:03:00,37.0,32.0,-100.00,NNW,329,2.0,5.0,82,0.00,,,0.03,0.000000,,2013-01-03 06:03:00,
2013-01-03 01:33:00,37.0,32.0,-100.00,NE,45,1.0,4.0,81,0.00,,,0.02,0.000000,,2013-01-03 06:33:00,
2013-01-03 01:43:00,37.0,32.0,-100.00,NE,45,1.0,4.0,81,0.00,,,0.02,0.000000,,2013-01-03 06:43:00,
2013-01-03 01:53:00,37.0,32.0,-100.00,NE,45,1.0,4.0,81,0.00,,,0.02,0.000000,,2013-01-03 06:53:00,
2013-01-03 02:02:00,37.0,32.0,-100.00,NE,45,1.0,4.0,81,0.00,,,0.02,0.000000,,2013-01-03 07:02:00,
2013-01-03 02:33:00,37.0,32.0,-100.00,North,356,2.0,4.0,82,0.00,,,0.01,0.000000,,2013-01-03 07:33:00,
2013-01-03 02:43:00,37.0,32.0,-100.00,North,356,2.0,4.0,82,0.00,,,0.01,0.000000,,2013-01-03 07:43:00,
2013-01-03 02:53:00,37.0,32.0,-100.00,North,356,2.0,4.0,82,0.00,,,0.01,0.000000,,2013-01-03 07:53:00,
2013-01-03 03:02:00,37.0,32.0,-100.00,North,356,2.0,4.0,82,0.00,,,0.01,0.000000,,2013-01-03 08:02:00,
2013-01-03 03:33:00,36.0,31.0,-100.00,NNE,27,1.0,4.0,82,0.00,,,0.01,0.000000,,2013-01-03 08:33:00,
2013-01-03 03:43:00,36.0,31.0,-100.00,NNE,27,1.0,4.0,82,0.00,,,0.01,0.000000,,2013-01-03 08:43:00,
2013-01-03 03:53:00,36.0,31.0,-100.00,NNE,27,1.0,4.0,82,0.00,,,0.01,0.000000,,2013-01-03 08:53:00,
2013-01-03 04:03:00,36.0,31.0,-100.00,NNE,27,1.0,4.0,82,0.00,,,0.01,0.000000,,2013-01-03 09:03:00,
2013-01-03 04:34:00,36.0,32.0,-100.00,NW,319,0.0,2.0,84,0.00,,,0.01,0.000000,,2013-01-03 09:34:00,
2013-01-03 04:43:00,36.0,32.0,-100.00,NW,319,0.0,2.0,84,0.00,,,0.01,0.000000,,2013-01-03 09:43:00,
2013-01-03 04:53:00,36.0,32.0,-100.00,NW,319,0.0,2.0,84,0.00,,,0.01,0.000000,,2013-01-03 09:53:00,
2013-01-03 05:02:00,36.0,32.0,-100.00,NW,319,0.0,2.0,84,0.00,,,0.01,0.000000,,2013-01-03 10:02:00,
2013-01-03 05:33:00,36.0,32.0,-100.00,NW,313,2.0,3.0,85,0.00,,,0.00,0.000000,,2013-01-03 10:33:00,
2013-01-03 05:43:00,36.0,32.0,-100.00,NW,313,2.0,3.0,85,0.00,,,0.00,0.000000,,2013-01-03 10:43:00,
2013-01-03 05:53:00,36.0,32.0,-100.00,NW,313,2.0,3.0,85,0.00,,,0.00,0.000000,,2013-01-03 10:53:00,
2013-01-03 06:02:00,36.0,32.0,-100.00,NW,313,2.0,3.0,85,0.00,,,0.00,0.000000,,2013-01-03 11:02:00,
2013-01-03 06:33:00,36.0,32.0,-100.00,WNW,294,1.0,2.0,86,0.00,,,0.00,0.000000,,2013-01-03 11:33:00,
2013-01-03 06:43:00,36.0,32.0,-100.00,WNW,294,1.0,2.0,86,0.00,,,0.00,0.000000,,2013-01-03 11:43:00,
2013-01-03 06:53:00,36.0,32.0,-100.00,WNW,294,1.0,2.0,86,0.00,,,0.00,0.000000,,2013-01-03 11:53:00,
2013-01-03 07:03:00,36.0,32.0,-100.00,WNW,294,1.0,2.0,86,0.00,,,0.00,0.000000,,2013-01-03 12:03:00,
2013-01-03 07:33:00,36.0,33.0,-100.00,North,8,1.0,3.0,87,0.00,,,0.00,0.000000,,2013-01-03 12:33:00,
2013-01-03 07:43:00,36.0,33.0,-100.00,North,8,1.0,3.0,87,0.00,,,0.00,0.000000,,2013-01-03 12:43:00,
2013-01-03 07:53:00,36.0,33.0,-100.00,North,8,1.0,3.0,87,0.00,,,0.00,0.000000,,2013-01-03 12:53:00,
2013-01-03 08:02:00,36.0,33.0,-100.00,North,8,1.0,3.0,87,0.00,,,0.00,0.000000,,2013-01-03 13:02:00,
2013-01-03 08:33:00,36.0,32.0,-100.00,NNW,339,1.0,3.0,86,0.00,,,0.00,1.000000,,2013-01-03 13:33:00,
2013-01-03 08:43:00,36.0,32.0,-100.00,NNW,339,1.0,3.0,86,0.00,,,0.00,1.000000,,2013-01-03 13:43:00,
2013-01-03 08:53:00,36.0,32.0,-100.00,NNW,339,1.0,3.0,86,0.00,,,0.00,1.000000,,2013-01-03 13:53:00,
2013-01-03 09:03:00,36.0,32.0,-100.00,NNW,339,1.0,3.0,86,0.00,,,0.00,1.000000,,2013-01-03 14:03:00,
2013-01-03 09:33:00,36.0,32.0,-100.00,NNW,346,2.0,4.0,85,0.00,,,0.00,33.000000,,2013-01-03 14:33:00,
2013-01-03 09:43:00,36.0,32.0,-100.00,NNW,346,2.0,4.0,85,0.00,,,0.00,33.000000,,2013-01-03 14:43:00,
2013-01-03 09:53:00,36.0,32.0,-100.00,NNW,346,2.0,4.0,85,0.00,,,0.00,33.000000,,2013-01-03 14:53:00,
2013-01-03 10:03:00,36.0,32.0,-100.00,NNW,346,2.0,4.0,85,0.00,,,0.00,33.000000,,2013-01-03 15:03:00,
2013-01-03 10:34:00,37.0,32.0,-100.00,North,349,3.0,5.0,82,0.00,,,0.00,79.000000,,2013-01-03 15:34:00,
2013-01-03 10:43:00,37.0,32.0,-100.00,North,349,3.0,5.0,82,0.00,,,0.00,79.000000,,2013-01-03 15:43:00,
2013-01-03 10:53:00,37.0,32.0,-100.00,North,349,3.0,5.0,82,0.00,,,0.00,79.000000,,2013-01-03 15:53:00,
2013-01-03 11:03:00,37.0,32.0,-100.00,North,349,3.0,5.0,82,0.00,,,0.00,79.000000,,2013-01-03 16:03:00,
2013-01-03 11:34:00,38.0,32.0,-100.00,NNE,19,3.0,5.0,78,0.00,,,0.00,118.000000,,2013-01-03 16:34:00,
2013-01-03 11:43:00,38.0,32.0,-100.00,NNE,19,3.0,5.0,78,0.00,,,0.00,118.000000,,2013-01-03 16:43:00,
2013-01-03 11:53:00,38.0,32.0,-100.00,NNE,19,3.0,5.0,78,0.00,,,0.00,118.000000,,2013-01-03 16:53:00,
2013-01-03 12:03:00,38.0,32.0,-100.00,NNE,19,3.0,5.0,78,0.00,,,0.00,118.000000,,2013-01-03 17:03:00,
2013-01-03 12:33:00,40.0,33.0,-100.00,North,349,4.0,7.0,76,0.00,,,0.00,203.000000,,2013-01-03 17:33:00,
2013-01-03 12:43:00,40.0,33.0,-100.00,North,349,4.0,7.0,76,0.00,,,0.00,203.000000,,2013-01-03 17:43:00,
2013-01-03 12:53:00,40.0,33.0,-100.00,North,349,4.0,7.0,76,0.00,,,0.00,203.000000,,2013-01-03 17:53:00,
2013-01-03 13:03:00,40.0,33.0,-100.00,North,349,4.0,7.0,76,0.00,,,0.00,203.000000,,2013-01-03 18:03:00,
2013-01-03 13:33:00,40.0,31.0,-100.00,North,10,4.0,6.0,70,0.00,,,0.00,194.000000,,2013-01-03 18:33:00,
2013-01-03 13:43:00,40.0,31.0,-100.00,North,10,4.0,6.0,70,0.00,,,0.00,194.000000,,2013-01-03 18:43:00,
2013-01-03 13:53:00,40.0,31.0,-100.00,North,10,4.0,6.0,70,0.00,,,0.00,194.000000,,2013-01-03 18:53:00,
2013-01-03 14:03:00,40.0,31.0,-100.00,North,10,4.0,6.0,70,0.00,,,0.00,194.000000,,2013-01-03 19:03:00,
2013-01-03 14:57:00,42.0,32.0,-100.00,WSW,254,3.0,7.0,67,0.00,,,0.00,216.000000,,2013-01-03 19:57:00,
2013-01-03 15:03:00,42.0,32.0,-100.00,WSW,254,3.0,7.0,67,0.00,,,0.00,216.000000,,2013-01-03 20:03:00,
2013-01-03 15:33:00,43.0,28.0,-100.00,SW,218,3.0,9.0,55,0.00,,,0.00,198.000000,,2013-01-03 20:33:00,
2013-01-03 15:43:00,43.0,28.0,-100.00,SW,218,3.0,9.0,55,0.00,,,0.00,198.000000,,2013-01-03 20:43:00,
2013-01-03 15:53:00,43.0,28.0,-100.00,SW,218,3.0,9.0,55,0.00,,,0.00,198.000000,,2013-01-03 20:53:00,
2013-01-03 16:03:00,43.0,28.0,-100.00,SW,218,3.0,9.0,55,0.00,,,0.00,198.000000,,2013-01-03 21:03:00,
2013-01-03 16:38:00,44.0,25.0,-100.00,West,280,3.0,7.0,46,0.00,,,0.00,140.000000,,2013-01-03 21:38:00,
2013-01-03 16:50:00,44.0,25.0,-100.00,West,280,3.0,7.0,46,0.00,,,0.00,140.000000,,2013-01-03 21:50:00,
2013-01-03 17:03:00,44.0,25.0,-100.00,West,280,3.0,7.0,46,0.00,,,0.00,140.000000,,2013-01-03 22:03:00,
2013-01-03 17:33:00,41.0,21.0,-100.00,WNW,286,2.0,8.0,45,0.00,,,0.00,68.000000,,2013-01-03 22:33:00,
2013-01-03 17:43:00,41.0,21.0,-100.00,WNW,286,2.0,8.0,45,0.00,,,0.00,68.000000,,2013-01-03 22:43:00,
2013-01-03 17:53:00,41.0,21.0,-100.00,WNW,286,2.0,8.0,45,0.00,,,0.00,68.000000,,2013-01-03 22:53:00,
2013-01-03 18:03:00,41.0,21.0,-100.00,WNW,286,2.0,8.0,45,0.00,,,0.00,68.000000,,2013-01-03 23:03:00,
2013-01-03 18:33:00,37.0,24.0,-100.00,WSW,241,2.0,3.0,58,0.00,,,0.00,5.000000,,2013-01-03 23:33:00,
2013-01-03 18:43:00,37.0,24.0,-100.00,WSW,241,2.0,3.0,58,0.00,,,0.00,5.000000,,2013-01-03 23:43:00,
2013-01-03 18:53:00,37.0,24.0,-100.00,WSW,241,2.0,3.0,58,0.00,,,0.00,5.000000,,2013-01-03 23:53:00,
2013-01-03 19:03:00,37.0,24.0,-100.00,WSW,241,2.0,3.0,58,0.00,,,0.00,5.000000,,2013-01-04 00:03:00,
2013-01-03 19:33:00,33.0,24.0,-100.00,WSW,240,2.0,3.0,69,0.00,,,0.00,0.000000,,2013-01-04 00:33:00,
2013-01-03 19:42:00,33.0,24.0,-100.00,WSW,240,2.0,3.0,69,0.00,,,0.00,0.000000,,2013-01-04 00:42:00,
2013-01-03 19:53:00,33.0,24.0,-100.00,WSW,240,2.0,3.0,69,0.00,,,0.00,0.000000,,2013-01-04 00:53:00,
2013-01-03 20:02:00,33.0,24.0,-100.00,WSW,240,2.0,3.0,69,0.00,,,0.00,0.000000,,2013-01-04 01:02:00,
2013-01-03 20:33:00,30.0,26.0,-100.00,SSW,212,1.0,3.0,84,0.00,,,0.00,0.000000,,2013-01-04 01:33:00,
2013-01-03 20:42:00,30.0,26.0,-100.00,SSW,212,1.0,3.0,84,0.00,,,0.00,0.000000,,2013-01-04 01:42:00,
2013-01-03 20:53:00,30.0,26.0,-100.00,SSW,212,1.0,3.0,84,0.00,,,0.00,0.000000,,2013-01-04 01:53:00,
2013-01-03 21:02:00,30.0,26.0,-100.00,SSW,212,1.0,3.0,84,0.00,,,0.00,0.000000,,2013-01-04 02:02:00,
2013-01-03 21:33:00,29.0,26.0,-100.00,WSW,257,3.0,5.0,88,0.00,,,0.00,0.000000,,2013-01-04 02:33:00,
2013-01-03 21:42:00,29.0,26.0,-100.00,WSW,257,3.0,5.0,88,0.00,,,0.00,0.000000,,2013-01-04 02:42:00,
2013-01-03 21:53:00,29.0,26.0,-100.00,WSW,257,3.0,5.0,88,0.00,,,0.00,0.000000,,2013-01-04 02:53:00,
2013-01-03 22:03:00,29.0,26.0,-100.00,WSW,257,3.0,5.0,88,0.00,,,0.00,0.000000,,2013-01-04 03:03:00,
2013-01-03 22:33:00,28.0,25.0,-100.00,SSW,201,1.0,4.0,88,0.00,,,0.00,0.000000,,2013-01-04 03:33:00,
2013-01-03 22:43:00,28.0,25.0,-100.00,SSW,201,1.0,4.0,88,0.00,,,0.00,0.000000,,2013-01-04 03:43:00,
2013-01-03 22:53:00,28.0,25.0,-100.00,SSW,201,1.0,4.0,88,0.00,,,0.00,0.000000,,2013-01-04 03:53:00,
2013-01-03 23:02:00,28.0,25.0,-100.00,SSW,201,1.0,4.0,88,0.00,,,0.00,0.000000,,2013-01-04 04:02:00,
2013-01-03 23:32:00,27.0,25.0,-100.00,South,189,2.0,4.0,91,0.00,,,0.00,0.000000,,2013-01-04 04:32:00,
2013-01-03 23:42:00,27.0,25.0,-100.00,South,189,2.0,4.0,91,0.00,,,0.00,0.000000,,2013-01-04 04:42:00,
2013-01-03 23:53:00,27.0,25.0,-100.00,South,189,2.0,4.0,91,0.00,,,0.00,0.000000,,2013-01-04 04:53:00,